sensor_id;sensor_type;location;lat;lon;timestamp;P1;durP1;ratioP1;P2;durP2;ratioP2
41532;SDS011;27262;-35.248;149.138;2023-02-01T00:00:05;5.20;;;2.08;;
41532;SDS011;27262;-35.248;149.138;2023-02-01T00:02:36;7.80;;;1.92;;
41532;SDS011;27262;-35.248;149.138;2023-02-01T00:05:09;8.40;;;2.28;;
41532;SDS011;27262;-35.248;149.138;2023-02-01T00:07:40;6.47;;;2.10;;
41532;SDS011;27262;-35.248;149.138;2023-02-01T00:10:10;5.75;;;2.00;;
41532;SDS011;27262;-35.248;149.138;2023-02-01T00:12:40;7.43;;;1.83;;
41532;SDS011;27262;-35.248;149.138;2023-02-01T00:15:11;8.35;;;2.13;;
41532;SDS011;27262;-35.248;149.138;2023-02-01T00:17:41;8.02;;;1.92;;
41532;SDS011;27262;-35.248;149.138;2023-02-01T00:20:11;8.93;;;2.45;;
41532;SDS011;27262;-35.248;149.138;2023-02-01T00:22:42;10.85;;;2.60;;
41532;SDS011;27262;-35.248;149.138;2023-02-01T00:25:12;8.65;;;2.15;;
41532;SDS011;27262;-35.248;149.138;2023-02-01T00:27:42;9.05;;;2.60;;
41532;SDS011;27262;-35.248;149.138;2023-02-01T00:30:17;9.35;;;1.90;;
41532;SDS011;27262;-35.248;149.138;2023-02-01T00:32:48;13.30;;;2.45;;
41532;SDS011;27262;-35.248;149.138;2023-02-01T00:35:18;8.30;;;1.90;;
41532;SDS011;27262;-35.248;149.138;2023-02-01T00:37:48;7.85;;;2.38;;
41532;SDS011;27262;-35.248;149.138;2023-02-01T00:40:19;8.85;;;2.25;;
41532;SDS011;27262;-35.248;149.138;2023-02-01T00:42:49;10.70;;;2.95;;
41532;SDS011;27262;-35.248;149.138;2023-02-01T00:45:20;7.68;;;2.20;;
41532;SDS011;27262;-35.248;149.138;2023-02-01T00:47:50;9.02;;;2.97;;
41532;SDS011;27262;-35.248;149.138;2023-02-01T00:50:20;8.73;;;2.45;;
41532;SDS011;27262;-35.248;149.138;2023-02-01T00:52:51;6.57;;;2.33;;
41532;SDS011;27262;-35.248;149.138;2023-02-01T00:55:21;6.03;;;2.47;;
41532;SDS011;27262;-35.248;149.138;2023-02-01T00:57:52;7.10;;;2.65;;
41532;SDS011;27262;-35.248;149.138;2023-02-01T01:00:22;7.32;;;2.25;;
41532;SDS011;27262;-35.248;149.138;2023-02-01T01:02:52;5.43;;;2.53;;
41532;SDS011;27262;-35.248;149.138;2023-02-01T01:05:23;8.93;;;2.78;;
41532;SDS011;27262;-35.248;149.138;2023-02-01T01:07:56;7.22;;;2.30;;
41532;SDS011;27262;-35.248;149.138;2023-02-01T01:10:26;5.55;;;2.00;;
41532;SDS011;27262;-35.248;149.138;2023-02-01T01:12:56;8.20;;;2.40;;
41532;SDS011;27262;-35.248;149.138;2023-02-01T01:15:27;6.13;;;2.00;;
41532;SDS011;27262;-35.248;149.138;2023-02-01T01:17:57;9.10;;;2.65;;
41532;SDS011;27262;-35.248;149.138;2023-02-01T01:20:27;7.50;;;2.45;;
41532;SDS011;27262;-35.248;149.138;2023-02-01T01:22:58;8.63;;;2.45;;
41532;SDS011;27262;-35.248;149.138;2023-02-01T01:25:28;8.18;;;2.50;;
41532;SDS011;27262;-35.248;149.138;2023-02-01T01:27:58;7.13;;;2.00;;
41532;SDS011;27262;-35.248;149.138;2023-02-01T01:30:29;7.28;;;2.55;;
41532;SDS011;27262;-35.248;149.138;2023-02-01T01:32:59;5.47;;;2.33;;
41532;SDS011;27262;-35.248;149.138;2023-02-01T01:35:30;5.72;;;1.92;;
41532;SDS011;27262;-35.248;149.138;2023-02-01T01:38:01;8.00;;;2.22;;
41532;SDS011;27262;-35.248;149.138;2023-02-01T01:40:32;5.18;;;2.35;;
41532;SDS011;27262;-35.248;149.138;2023-02-01T01:43:02;5.00;;;2.15;;
41532;SDS011;27262;-35.248;149.138;2023-02-01T01:45:39;7.93;;;2.55;;
41532;SDS011;27262;-35.248;149.138;2023-02-01T01:51:00;5.00;;;2.03;;
41532;SDS011;27262;-35.248;149.138;2023-02-01T01:53:42;5.32;;;2.20;;
41532;SDS011;27262;-35.248;149.138;2023-02-01T01:56:15;6.35;;;2.33;;
41532;SDS011;27262;-35.248;149.138;2023-02-01T01:58:46;6.13;;;2.50;;
41532;SDS011;27262;-35.248;149.138;2023-02-01T02:01:16;7.40;;;2.30;;
41532;SDS011;27262;-35.248;149.138;2023-02-01T02:03:46;7.30;;;2.33;;
41532;SDS011;27262;-35.248;149.138;2023-02-01T02:07:04;5.00;;;2.20;;
41532;SDS011;27262;-35.248;149.138;2023-02-01T02:09:14;4.18;;;1.75;;
41532;SDS011;27262;-35.248;149.138;2023-02-01T02:11:44;4.75;;;1.73;;
41532;SDS011;27262;-35.248;149.138;2023-02-01T02:14:16;4.07;;;1.80;;
41532;SDS011;27262;-35.248;149.138;2023-02-01T02:46:17;6.68;;;2.40;;
41532;SDS011;27262;-35.248;149.138;2023-02-01T02:52:11;4.68;;;2.22;;
41532;SDS011;27262;-35.248;149.138;2023-02-01T02:55:04;2.65;;;1.65;;
41532;SDS011;27262;-35.248;149.138;2023-02-01T02:57:37;4.97;;;2.13;;
41532;SDS011;27262;-35.248;149.138;2023-02-01T03:00:30;4.22;;;2.08;;
41532;SDS011;27262;-35.248;149.138;2023-02-01T03:03:20;4.20;;;1.80;;
41532;SDS011;27262;-35.248;149.138;2023-02-01T03:06:12;4.30;;;1.77;;
41532;SDS011;27262;-35.248;149.138;2023-02-01T03:08:44;3.42;;;1.88;;
41532;SDS011;27262;-35.248;149.138;2023-02-01T03:11:15;9.60;;;2.22;;
41532;SDS011;27262;-35.248;149.138;2023-02-01T03:13:53;6.80;;;2.00;;
41532;SDS011;27262;-35.248;149.138;2023-02-01T03:16:33;6.60;;;1.88;;
41532;SDS011;27262;-35.248;149.138;2023-02-01T03:19:14;6.32;;;2.00;;
41532;SDS011;27262;-35.248;149.138;2023-02-01T03:24:32;5.55;;;1.75;;
41532;SDS011;27262;-35.248;149.138;2023-02-01T03:27:09;4.55;;;1.60;;
41532;SDS011;27262;-35.248;149.138;2023-02-01T03:32:47;4.22;;;1.30;;
41532;SDS011;27262;-35.248;149.138;2023-02-01T03:38:09;5.45;;;1.98;;
41532;SDS011;27262;-35.248;149.138;2023-02-01T03:43:36;4.45;;;1.50;;
41532;SDS011;27262;-35.248;149.138;2023-02-01T03:46:35;6.70;;;1.90;;
41532;SDS011;27262;-35.248;149.138;2023-02-01T03:52:40;4.20;;;1.77;;
41532;SDS011;27262;-35.248;149.138;2023-02-01T03:55:14;3.83;;;1.38;;
41532;SDS011;27262;-35.248;149.138;2023-02-01T03:57:53;2.85;;;1.60;;
41532;SDS011;27262;-35.248;149.138;2023-02-01T04:00:32;3.03;;;1.60;;
41532;SDS011;27262;-35.248;149.138;2023-02-01T04:03:06;4.38;;;1.48;;
41532;SDS011;27262;-35.248;149.138;2023-02-01T04:05:37;4.18;;;1.73;;
41532;SDS011;27262;-35.248;149.138;2023-02-01T04:08:07;4.38;;;1.85;;
41532;SDS011;27262;-35.248;149.138;2023-02-01T04:10:38;5.10;;;1.80;;
41532;SDS011;27262;-35.248;149.138;2023-02-01T04:13:08;2.65;;;1.33;;
41532;SDS011;27262;-35.248;149.138;2023-02-01T04:15:39;3.83;;;1.42;;
41532;SDS011;27262;-35.248;149.138;2023-02-01T04:18:09;3.38;;;1.23;;
41532;SDS011;27262;-35.248;149.138;2023-02-01T04:20:40;4.15;;;1.65;;
41532;SDS011;27262;-35.248;149.138;2023-02-01T04:23:11;5.22;;;1.42;;
41532;SDS011;27262;-35.248;149.138;2023-02-01T04:25:42;5.03;;;1.30;;
41532;SDS011;27262;-35.248;149.138;2023-02-01T04:28:13;5.97;;;1.60;;
41532;SDS011;27262;-35.248;149.138;2023-02-01T04:30:43;3.55;;;1.40;;
41532;SDS011;27262;-35.248;149.138;2023-02-01T04:33:14;7.68;;;1.65;;
41532;SDS011;27262;-35.248;149.138;2023-02-01T04:35:45;3.67;;;1.50;;
41532;SDS011;27262;-35.248;149.138;2023-02-01T04:38:16;4.85;;;1.75;;
41532;SDS011;27262;-35.248;149.138;2023-02-01T04:40:55;5.85;;;1.58;;
41532;SDS011;27262;-35.248;149.138;2023-02-01T04:43:25;3.75;;;1.48;;
41532;SDS011;27262;-35.248;149.138;2023-02-01T04:45:56;7.13;;;1.67;;
41532;SDS011;27262;-35.248;149.138;2023-02-01T04:48:26;7.05;;;1.00;;
41532;SDS011;27262;-35.248;149.138;2023-02-01T04:50:56;4.20;;;1.70;;
41532;SDS011;27262;-35.248;149.138;2023-02-01T04:53:27;5.22;;;1.38;;
41532;SDS011;27262;-35.248;149.138;2023-02-01T04:55:58;4.85;;;1.45;;
41532;SDS011;27262;-35.248;149.138;2023-02-01T04:58:28;2.83;;;1.20;;
41532;SDS011;27262;-35.248;149.138;2023-02-01T05:00:58;5.88;;;1.58;;
41532;SDS011;27262;-35.248;149.138;2023-02-01T05:03:33;2.20;;;1.40;;
41532;SDS011;27262;-35.248;149.138;2023-02-01T05:06:04;2.90;;;1.40;;
41532;SDS011;27262;-35.248;149.138;2023-02-01T05:08:35;4.55;;;1.10;;
41532;SDS011;27262;-35.248;149.138;2023-02-01T05:11:05;3.65;;;1.63;;
41532;SDS011;27262;-35.248;149.138;2023-02-01T05:13:55;1.85;;;1.33;;
41532;SDS011;27262;-35.248;149.138;2023-02-01T05:16:28;4.25;;;1.27;;
41532;SDS011;27262;-35.248;149.138;2023-02-01T05:18:58;2.53;;;1.10;;
41532;SDS011;27262;-35.248;149.138;2023-02-01T05:21:28;4.65;;;1.65;;
41532;SDS011;27262;-35.248;149.138;2023-02-01T05:23:58;3.78;;;1.52;;
41532;SDS011;27262;-35.248;149.138;2023-02-01T05:27:03;1.75;;;1.23;;
41532;SDS011;27262;-35.248;149.138;2023-02-01T05:29:34;2.30;;;1.25;;
41532;SDS011;27262;-35.248;149.138;2023-02-01T05:32:04;1.25;;;1.00;;
41532;SDS011;27262;-35.248;149.138;2023-02-01T05:34:48;3.40;;;1.20;;
41532;SDS011;27262;-35.248;149.138;2023-02-01T05:37:19;3.20;;;1.27;;
41532;SDS011;27262;-35.248;149.138;2023-02-01T05:39:49;2.97;;;1.13;;
41532;SDS011;27262;-35.248;149.138;2023-02-01T05:42:20;1.77;;;1.05;;
41532;SDS011;27262;-35.248;149.138;2023-02-01T05:44:50;3.75;;;1.63;;
41532;SDS011;27262;-35.248;149.138;2023-02-01T05:47:21;2.03;;;1.10;;
41532;SDS011;27262;-35.248;149.138;2023-02-01T05:49:51;2.58;;;1.30;;
41532;SDS011;27262;-35.248;149.138;2023-02-01T05:52:22;3.85;;;1.30;;
41532;SDS011;27262;-35.248;149.138;2023-02-01T05:54:52;5.65;;;1.30;;
41532;SDS011;27262;-35.248;149.138;2023-02-01T05:57:22;3.22;;;1.10;;
41532;SDS011;27262;-35.248;149.138;2023-02-01T05:59:53;1.38;;;0.85;;
41532;SDS011;27262;-35.248;149.138;2023-02-01T06:02:24;1.40;;;1.10;;
41532;SDS011;27262;-35.248;149.138;2023-02-01T06:04:55;2.67;;;1.10;;
41532;SDS011;27262;-35.248;149.138;2023-02-01T06:07:25;3.97;;;1.17;;
41532;SDS011;27262;-35.248;149.138;2023-02-01T06:09:55;1.67;;;0.85;;
41532;SDS011;27262;-35.248;149.138;2023-02-01T06:12:25;2.33;;;1.10;;
41532;SDS011;27262;-35.248;149.138;2023-02-01T06:14:56;1.90;;;1.02;;
41532;SDS011;27262;-35.248;149.138;2023-02-01T06:17:27;1.77;;;0.88;;
41532;SDS011;27262;-35.248;149.138;2023-02-01T06:19:57;2.85;;;1.00;;
41532;SDS011;27262;-35.248;149.138;2023-02-01T06:22:28;2.60;;;1.30;;
41532;SDS011;27262;-35.248;149.138;2023-02-01T06:24:58;1.83;;;1.10;;
41532;SDS011;27262;-35.248;149.138;2023-02-01T06:27:28;1.92;;;1.08;;
41532;SDS011;27262;-35.248;149.138;2023-02-01T06:29:59;1.23;;;0.98;;
41532;SDS011;27262;-35.248;149.138;2023-02-01T06:32:29;2.13;;;1.08;;
41532;SDS011;27262;-35.248;149.138;2023-02-01T06:35:00;1.73;;;1.00;;
41532;SDS011;27262;-35.248;149.138;2023-02-01T06:37:30;1.40;;;0.95;;
41532;SDS011;27262;-35.248;149.138;2023-02-01T06:40:00;3.05;;;1.08;;
41532;SDS011;27262;-35.248;149.138;2023-02-01T06:42:31;0.73;;;0.52;;
41532;SDS011;27262;-35.248;149.138;2023-02-01T06:45:01;0.63;;;0.60;;
41532;SDS011;27262;-35.248;149.138;2023-02-01T06:47:31;3.42;;;0.90;;
41532;SDS011;27262;-35.248;149.138;2023-02-01T06:50:02;2.30;;;0.85;;
41532;SDS011;27262;-35.248;149.138;2023-02-01T06:52:32;0.98;;;0.65;;
41532;SDS011;27262;-35.248;149.138;2023-02-01T06:55:04;2.40;;;0.70;;
41532;SDS011;27262;-35.248;149.138;2023-02-01T06:57:35;0.50;;;0.50;;
41532;SDS011;27262;-35.248;149.138;2023-02-01T07:00:05;1.65;;;0.68;;
41532;SDS011;27262;-35.248;149.138;2023-02-01T07:02:36;1.15;;;0.70;;
41532;SDS011;27262;-35.248;149.138;2023-02-01T07:05:07;0.80;;;0.60;;
41532;SDS011;27262;-35.248;149.138;2023-02-01T07:07:38;0.65;;;0.65;;
41532;SDS011;27262;-35.248;149.138;2023-02-01T07:10:08;0.63;;;0.50;;
41532;SDS011;27262;-35.248;149.138;2023-02-01T07:12:39;2.15;;;0.50;;
41532;SDS011;27262;-35.248;149.138;2023-02-01T07:15:09;1.23;;;0.70;;
41532;SDS011;27262;-35.248;149.138;2023-02-01T07:17:40;1.83;;;0.90;;
41532;SDS011;27262;-35.248;149.138;2023-02-01T07:20:10;2.10;;;0.70;;
41532;SDS011;27262;-35.248;149.138;2023-02-01T07:22:40;1.15;;;0.73;;
41532;SDS011;27262;-35.248;149.138;2023-02-01T07:25:11;2.22;;;0.80;;
41532;SDS011;27262;-35.248;149.138;2023-02-01T07:27:41;0.95;;;0.70;;
41532;SDS011;27262;-35.248;149.138;2023-02-01T07:30:12;0.55;;;0.52;;
41532;SDS011;27262;-35.248;149.138;2023-02-01T07:32:42;0.60;;;0.50;;
41532;SDS011;27262;-35.248;149.138;2023-02-01T07:35:12;1.85;;;0.70;;
41532;SDS011;27262;-35.248;149.138;2023-02-01T07:37:43;1.85;;;0.63;;
41532;SDS011;27262;-35.248;149.138;2023-02-01T07:40:13;1.02;;;0.70;;
41532;SDS011;27262;-35.248;149.138;2023-02-01T07:42:44;0.50;;;0.50;;
41532;SDS011;27262;-35.248;149.138;2023-02-01T07:45:14;1.25;;;0.70;;
41532;SDS011;27262;-35.248;149.138;2023-02-01T07:47:47;1.95;;;0.90;;
41532;SDS011;27262;-35.248;149.138;2023-02-01T07:50:20;1.83;;;0.77;;
41532;SDS011;27262;-35.248;149.138;2023-02-01T07:52:50;0.85;;;0.65;;
41532;SDS011;27262;-35.248;149.138;2023-02-01T07:55:21;1.08;;;0.70;;
41532;SDS011;27262;-35.248;149.138;2023-02-01T07:57:56;3.13;;;0.70;;
41532;SDS011;27262;-35.248;149.138;2023-02-01T08:00:28;1.10;;;0.70;;
41532;SDS011;27262;-35.248;149.138;2023-02-01T08:03:16;1.58;;;0.90;;
41532;SDS011;27262;-35.248;149.138;2023-02-01T08:05:47;2.78;;;1.00;;
41532;SDS011;27262;-35.248;149.138;2023-02-01T08:08:17;1.00;;;0.75;;
41532;SDS011;27262;-35.248;149.138;2023-02-01T08:10:59;1.48;;;0.85;;
41532;SDS011;27262;-35.248;149.138;2023-02-01T08:13:31;1.05;;;0.85;;
41532;SDS011;27262;-35.248;149.138;2023-02-01T08:16:04;2.47;;;0.80;;
41532;SDS011;27262;-35.248;149.138;2023-02-01T08:18:36;1.13;;;0.70;;
41532;SDS011;27262;-35.248;149.138;2023-02-01T08:21:08;1.55;;;0.80;;
41532;SDS011;27262;-35.248;149.138;2023-02-01T08:23:44;3.92;;;0.93;;
41532;SDS011;27262;-35.248;149.138;2023-02-01T08:26:16;1.55;;;0.70;;
41532;SDS011;27262;-35.248;149.138;2023-02-01T08:28:56;2.08;;;0.85;;
41532;SDS011;27262;-35.248;149.138;2023-02-01T08:31:28;1.65;;;0.70;;
41532;SDS011;27262;-35.248;149.138;2023-02-01T08:34:01;0.90;;;0.75;;
41532;SDS011;27262;-35.248;149.138;2023-02-01T08:36:36;2.13;;;0.80;;
41532;SDS011;27262;-35.248;149.138;2023-02-01T08:39:08;3.60;;;0.80;;
41532;SDS011;27262;-35.248;149.138;2023-02-01T08:41:39;0.80;;;0.60;;
41532;SDS011;27262;-35.248;149.138;2023-02-01T08:44:10;2.05;;;0.80;;
41532;SDS011;27262;-35.248;149.138;2023-02-01T08:46:41;0.73;;;0.73;;
41532;SDS011;27262;-35.248;149.138;2023-02-01T08:49:11;0.80;;;0.70;;
41532;SDS011;27262;-35.248;149.138;2023-02-01T08:51:41;0.98;;;0.82;;
41532;SDS011;27262;-35.248;149.138;2023-02-01T08:54:11;3.42;;;0.88;;
41532;SDS011;27262;-35.248;149.138;2023-02-01T08:56:42;1.27;;;1.00;;
41532;SDS011;27262;-35.248;149.138;2023-02-01T08:59:12;0.85;;;0.70;;
41532;SDS011;27262;-35.248;149.138;2023-02-01T09:01:42;0.90;;;0.77;;
41532;SDS011;27262;-35.248;149.138;2023-02-01T09:04:12;1.23;;;0.70;;
41532;SDS011;27262;-35.248;149.138;2023-02-01T09:06:43;0.95;;;0.70;;
41532;SDS011;27262;-35.248;149.138;2023-02-01T09:09:13;1.70;;;0.60;;
41532;SDS011;27262;-35.248;149.138;2023-02-01T09:11:43;1.08;;;0.60;;
41532;SDS011;27262;-35.248;149.138;2023-02-01T09:14:14;3.72;;;0.80;;
41532;SDS011;27262;-35.248;149.138;2023-02-01T09:16:44;1.98;;;0.75;;
41532;SDS011;27262;-35.248;149.138;2023-02-01T09:19:15;1.10;;;0.90;;
41532;SDS011;27262;-35.248;149.138;2023-02-01T09:21:52;2.95;;;0.55;;
41532;SDS011;27262;-35.248;149.138;2023-02-01T09:24:23;2.75;;;0.70;;
41532;SDS011;27262;-35.248;149.138;2023-02-01T09:26:53;2.08;;;0.80;;
41532;SDS011;27262;-35.248;149.138;2023-02-01T09:29:24;3.42;;;0.80;;
41532;SDS011;27262;-35.248;149.138;2023-02-01T09:31:54;1.23;;;0.88;;
41532;SDS011;27262;-35.248;149.138;2023-02-01T09:34:30;0.70;;;0.60;;
41532;SDS011;27262;-35.248;149.138;2023-02-01T09:37:01;3.15;;;0.85;;
41532;SDS011;27262;-35.248;149.138;2023-02-01T09:39:32;3.10;;;0.50;;
41532;SDS011;27262;-35.248;149.138;2023-02-01T09:45:10;1.92;;;0.80;;
41532;SDS011;27262;-35.248;149.138;2023-02-01T09:47:49;2.13;;;1.23;;
41532;SDS011;27262;-35.248;149.138;2023-02-01T09:50:40;2.90;;;1.02;;
41532;SDS011;27262;-35.248;149.138;2023-02-01T09:55:59;2.63;;;0.88;;
41532;SDS011;27262;-35.248;149.138;2023-02-01T09:58:47;3.33;;;0.73;;
41532;SDS011;27262;-35.248;149.138;2023-02-01T10:01:29;0.85;;;0.73;;
41532;SDS011;27262;-35.248;149.138;2023-02-01T10:04:07;1.48;;;0.85;;
41532;SDS011;27262;-35.248;149.138;2023-02-01T10:09:44;3.08;;;0.80;;
41532;SDS011;27262;-35.248;149.138;2023-02-01T10:21:09;2.67;;;0.80;;
41532;SDS011;27262;-35.248;149.138;2023-02-01T10:26:21;2.55;;;0.70;;
41532;SDS011;27262;-35.248;149.138;2023-02-01T10:28:53;1.00;;;0.88;;
41532;SDS011;27262;-35.248;149.138;2023-02-01T10:31:32;2.30;;;0.70;;
41532;SDS011;27262;-35.248;149.138;2023-02-01T10:34:23;2.67;;;0.70;;
41532;SDS011;27262;-35.248;149.138;2023-02-01T10:39:56;3.40;;;0.90;;
41532;SDS011;27262;-35.248;149.138;2023-02-01T10:42:47;1.70;;;0.82;;
41532;SDS011;27262;-35.248;149.138;2023-02-01T10:45:27;1.35;;;0.93;;
41532;SDS011;27262;-35.248;149.138;2023-02-01T10:48:02;1.55;;;1.02;;
41532;SDS011;27262;-35.248;149.138;2023-02-01T10:50:41;2.60;;;0.98;;
41532;SDS011;27262;-35.248;149.138;2023-02-01T10:56:18;2.47;;;1.02;;
41532;SDS011;27262;-35.248;149.138;2023-02-01T10:59:03;1.88;;;1.00;;
41532;SDS011;27262;-35.248;149.138;2023-02-01T11:01:36;4.43;;;1.08;;
41532;SDS011;27262;-35.248;149.138;2023-02-01T11:04:15;1.85;;;1.05;;
41532;SDS011;27262;-35.248;149.138;2023-02-01T11:06:53;4.65;;;0.90;;
41532;SDS011;27262;-35.248;149.138;2023-02-01T11:09:42;4.60;;;1.00;;
41532;SDS011;27262;-35.248;149.138;2023-02-01T11:12:27;3.70;;;0.80;;
41532;SDS011;27262;-35.248;149.138;2023-02-01T11:15:12;1.48;;;0.90;;
41532;SDS011;27262;-35.248;149.138;2023-02-01T11:17:51;1.52;;;1.00;;
41532;SDS011;27262;-35.248;149.138;2023-02-01T11:20:33;1.48;;;0.82;;
41532;SDS011;27262;-35.248;149.138;2023-02-01T11:23:15;2.10;;;0.70;;
41532;SDS011;27262;-35.248;149.138;2023-02-01T11:25:59;4.18;;;1.05;;
41532;SDS011;27262;-35.248;149.138;2023-02-01T11:28:37;5.57;;;0.90;;
41532;SDS011;27262;-35.248;149.138;2023-02-01T11:31:12;1.23;;;1.02;;
41532;SDS011;27262;-35.248;149.138;2023-02-01T11:33:52;4.50;;;1.23;;
41532;SDS011;27262;-35.248;149.138;2023-02-01T11:36:49;2.78;;;1.08;;
41532;SDS011;27262;-35.248;149.138;2023-02-01T11:39:31;3.35;;;1.48;;
41532;SDS011;27262;-35.248;149.138;2023-02-01T11:44:45;5.88;;;1.35;;
41532;SDS011;27262;-35.248;149.138;2023-02-01T11:47:49;6.25;;;1.50;;
41532;SDS011;27262;-35.248;149.138;2023-02-01T11:50:18;2.88;;;1.38;;
41532;SDS011;27262;-35.248;149.138;2023-02-01T11:53:20;3.45;;;1.48;;
41532;SDS011;27262;-35.248;149.138;2023-02-01T11:56:01;5.22;;;1.15;;
41532;SDS011;27262;-35.248;149.138;2023-02-01T11:58:46;4.40;;;1.35;;
41532;SDS011;27262;-35.248;149.138;2023-02-01T12:01:52;6.88;;;1.70;;
41532;SDS011;27262;-35.248;149.138;2023-02-01T12:16:09;2.05;;;1.08;;
41532;SDS011;27262;-35.248;149.138;2023-02-01T12:38:30;3.88;;;1.10;;
41532;SDS011;27262;-35.248;149.138;2023-02-01T12:43:58;1.67;;;1.00;;
41532;SDS011;27262;-35.248;149.138;2023-02-01T12:46:56;3.13;;;1.27;;
41532;SDS011;27262;-35.248;149.138;2023-02-01T12:49:46;1.02;;;0.90;;
41532;SDS011;27262;-35.248;149.138;2023-02-01T12:52:50;2.15;;;1.13;;
41532;SDS011;27262;-35.248;149.138;2023-02-01T13:04:13;1.02;;;0.88;;
41532;SDS011;27262;-35.248;149.138;2023-02-01T13:10:03;1.02;;;0.90;;
41532;SDS011;27262;-35.248;149.138;2023-02-01T13:13:09;2.67;;;1.23;;
41532;SDS011;27262;-35.248;149.138;2023-02-01T13:18:46;2.67;;;1.05;;
41532;SDS011;27262;-35.248;149.138;2023-02-01T13:21:26;1.55;;;0.98;;
41532;SDS011;27262;-35.248;149.138;2023-02-01T13:24:02;1.85;;;1.10;;
41532;SDS011;27262;-35.248;149.138;2023-02-01T13:26:33;3.13;;;1.20;;
41532;SDS011;27262;-35.248;149.138;2023-02-01T13:29:04;1.48;;;1.00;;
41532;SDS011;27262;-35.248;149.138;2023-02-01T13:42:29;1.98;;;1.10;;
41532;SDS011;27262;-35.248;149.138;2023-02-01T13:45:05;2.05;;;1.27;;
41532;SDS011;27262;-35.248;149.138;2023-02-01T13:47:44;3.17;;;1.40;;
41532;SDS011;27262;-35.248;149.138;2023-02-01T13:52:58;1.60;;;1.20;;
41532;SDS011;27262;-35.248;149.138;2023-02-01T13:55:40;2.60;;;1.10;;
41532;SDS011;27262;-35.248;149.138;2023-02-01T14:00:49;2.28;;;1.02;;
41532;SDS011;27262;-35.248;149.138;2023-02-01T14:03:46;2.72;;;1.20;;
41532;SDS011;27262;-35.248;149.138;2023-02-01T14:09:57;1.85;;;1.23;;
41532;SDS011;27262;-35.248;149.138;2023-02-01T14:15:27;1.52;;;1.20;;
41532;SDS011;27262;-35.248;149.138;2023-02-01T14:17:57;2.05;;;1.20;;
41532;SDS011;27262;-35.248;149.138;2023-02-01T14:20:45;1.52;;;1.25;;
41532;SDS011;27262;-35.248;149.138;2023-02-01T14:23:22;2.20;;;1.20;;
41532;SDS011;27262;-35.248;149.138;2023-02-01T14:26:01;1.73;;;1.33;;
41532;SDS011;27262;-35.248;149.138;2023-02-01T14:28:36;1.42;;;1.30;;
41532;SDS011;27262;-35.248;149.138;2023-02-01T14:31:22;1.42;;;1.02;;
41532;SDS011;27262;-35.248;149.138;2023-02-01T14:34:10;2.08;;;0.90;;
41532;SDS011;27262;-35.248;149.138;2023-02-01T14:36:51;2.28;;;1.20;;
41532;SDS011;27262;-35.248;149.138;2023-02-01T14:39:34;2.38;;;1.20;;
41532;SDS011;27262;-35.248;149.138;2023-02-01T14:50:36;1.33;;;1.23;;
41532;SDS011;27262;-35.248;149.138;2023-02-01T14:59:00;1.17;;;1.05;;
41532;SDS011;27262;-35.248;149.138;2023-02-01T15:01:50;2.10;;;1.25;;
41532;SDS011;27262;-35.248;149.138;2023-02-01T15:04:25;2.65;;;1.10;;
41532;SDS011;27262;-35.248;149.138;2023-02-01T15:17:56;1.00;;;0.90;;
41532;SDS011;27262;-35.248;149.138;2023-02-01T15:20:29;1.85;;;1.02;;
41532;SDS011;27262;-35.248;149.138;2023-02-01T15:23:05;1.00;;;0.90;;
41532;SDS011;27262;-35.248;149.138;2023-02-01T15:25:45;2.25;;;1.30;;
41532;SDS011;27262;-35.248;149.138;2023-02-01T15:28:18;1.10;;;0.98;;
41532;SDS011;27262;-35.248;149.138;2023-02-01T15:33:30;1.38;;;1.13;;
41532;SDS011;27262;-35.248;149.138;2023-02-01T15:38:41;1.17;;;1.00;;
41532;SDS011;27262;-35.248;149.138;2023-02-01T15:41:16;1.20;;;1.10;;
41532;SDS011;27262;-35.248;149.138;2023-02-01T15:49:29;2.05;;;1.50;;
41532;SDS011;27262;-35.248;149.138;2023-02-01T15:52:02;1.90;;;1.40;;
41532;SDS011;27262;-35.248;149.138;2023-02-01T15:54:46;1.92;;;1.40;;
41532;SDS011;27262;-35.248;149.138;2023-02-01T15:57:28;1.45;;;1.33;;
41532;SDS011;27262;-35.248;149.138;2023-02-01T16:00:21;1.92;;;1.40;;
41532;SDS011;27262;-35.248;149.138;2023-02-01T16:02:56;1.60;;;1.13;;
41532;SDS011;27262;-35.248;149.138;2023-02-01T16:08:11;2.40;;;1.40;;
41532;SDS011;27262;-35.248;149.138;2023-02-01T16:10:46;1.13;;;0.98;;
41532;SDS011;27262;-35.248;149.138;2023-02-01T16:13:18;1.15;;;1.05;;
41532;SDS011;27262;-35.248;149.138;2023-02-01T16:15:49;1.10;;;1.00;;
41532;SDS011;27262;-35.248;149.138;2023-02-01T16:18:19;2.03;;;1.20;;
41532;SDS011;27262;-35.248;149.138;2023-02-01T16:20:50;1.30;;;1.20;;
41532;SDS011;27262;-35.248;149.138;2023-02-01T16:23:20;1.25;;;1.15;;
41532;SDS011;27262;-35.248;149.138;2023-02-01T16:25:50;1.60;;;1.20;;
41532;SDS011;27262;-35.248;149.138;2023-02-01T16:28:20;1.90;;;1.17;;
41532;SDS011;27262;-35.248;149.138;2023-02-01T16:30:50;1.65;;;1.27;;
41532;SDS011;27262;-35.248;149.138;2023-02-01T16:33:21;1.70;;;1.33;;
41532;SDS011;27262;-35.248;149.138;2023-02-01T16:35:54;1.52;;;1.10;;
41532;SDS011;27262;-35.248;149.138;2023-02-01T16:38:28;1.98;;;1.40;;
41532;SDS011;27262;-35.248;149.138;2023-02-01T16:41:00;1.30;;;1.20;;
41532;SDS011;27262;-35.248;149.138;2023-02-01T16:43:31;1.08;;;1.08;;
41532;SDS011;27262;-35.248;149.138;2023-02-01T16:46:01;1.38;;;1.17;;
41532;SDS011;27262;-35.248;149.138;2023-02-01T16:48:35;1.80;;;1.20;;
41532;SDS011;27262;-35.248;149.138;2023-02-01T16:51:10;1.20;;;1.10;;
41532;SDS011;27262;-35.248;149.138;2023-02-01T16:53:43;1.35;;;1.23;;
41532;SDS011;27262;-35.248;149.138;2023-02-01T16:56:21;1.25;;;1.15;;
41532;SDS011;27262;-35.248;149.138;2023-02-01T16:58:55;2.63;;;1.30;;
41532;SDS011;27262;-35.248;149.138;2023-02-01T17:01:26;1.50;;;1.10;;
41532;SDS011;27262;-35.248;149.138;2023-02-01T17:03:57;1.98;;;1.30;;
41532;SDS011;27262;-35.248;149.138;2023-02-01T17:06:27;3.08;;;1.10;;
41532;SDS011;27262;-35.248;149.138;2023-02-01T17:09:00;2.92;;;1.30;;
41532;SDS011;27262;-35.248;149.138;2023-02-01T17:11:32;1.05;;;1.00;;
41532;SDS011;27262;-35.248;149.138;2023-02-01T17:14:17;1.70;;;1.00;;
41532;SDS011;27262;-35.248;149.138;2023-02-01T17:16:49;1.88;;;1.40;;
41532;SDS011;27262;-35.248;149.138;2023-02-01T17:19:21;1.92;;;1.13;;
41532;SDS011;27262;-35.248;149.138;2023-02-01T17:21:53;1.83;;;1.35;;
41532;SDS011;27262;-35.248;149.138;2023-02-01T17:24:28;2.70;;;1.27;;
41532;SDS011;27262;-35.248;149.138;2023-02-01T17:27:14;1.27;;;1.15;;
41532;SDS011;27262;-35.248;149.138;2023-02-01T17:29:45;1.23;;;1.13;;
41532;SDS011;27262;-35.248;149.138;2023-02-01T17:32:20;1.13;;;1.02;;
41532;SDS011;27262;-35.248;149.138;2023-02-01T17:34:54;1.40;;;1.30;;
41532;SDS011;27262;-35.248;149.138;2023-02-01T17:37:29;1.50;;;1.25;;
41532;SDS011;27262;-35.248;149.138;2023-02-01T17:40:02;1.30;;;1.13;;
41532;SDS011;27262;-35.248;149.138;2023-02-01T17:42:32;1.27;;;1.17;;
41532;SDS011;27262;-35.248;149.138;2023-02-01T17:45:51;1.38;;;1.20;;
41532;SDS011;27262;-35.248;149.138;2023-02-01T17:48:19;1.50;;;1.27;;
41532;SDS011;27262;-35.248;149.138;2023-02-01T17:50:50;1.10;;;1.00;;
41532;SDS011;27262;-35.248;149.138;2023-02-01T17:53:27;1.35;;;1.25;;
41532;SDS011;27262;-35.248;149.138;2023-02-01T17:55:58;1.40;;;1.30;;
41532;SDS011;27262;-35.248;149.138;2023-02-01T17:58:29;1.20;;;1.10;;
41532;SDS011;27262;-35.248;149.138;2023-02-01T18:01:00;1.30;;;1.05;;